LPE2217 SPJC-SPZO
Flight info
| Callsign | LPE2217 |
|---|---|
| Flight time | 1h 3m |
| Altitude | 33000 |
| Route | SPJC/16L N0443F330 PAKOL5 PAKOL UM668 POVLO DCT DARKI DARK1C SPZO/28 |
| Aircraft | A320/M-SDE3FGHIRWY/LB1 |
Departure
| Time | 2026-04-25 00:35 |
|---|---|
| Airport | Jorge Chávez International Airport (SPJC) |
Arrival
| Time | 2026-04-25 01:39 |
|---|---|
| Airport | Alejandro Velasco Astete International Airport (SPZO) |
| Time | Latitude | Longitude | Altitude | Speed | Heading |
|---|---|---|---|---|---|
| 2026-04-24 23:53 | -12.02769 | -77.11469 | 81 ft | 0 kts | 244° |
| 2026-04-25 00:18 | -12.02764 | -77.11458 | 85 ft | 4 kts | 248° |
| 2026-04-25 00:19 | -12.02756 | -77.11432 | 86 ft | 4 kts | 267° |
| 2026-04-25 00:19 | -12.02760 | -77.11408 | 85 ft | 4 kts | 324° |
| 2026-04-25 00:19 | -12.02765 | -77.11404 | 83 ft | 1 kts | 334° |
| 2026-04-25 00:26 | -12.02764 | -77.11405 | 82 ft | 2 kts | 334° |
| 2026-04-25 00:26 | -12.02715 | -77.11428 | 84 ft | 10 kts | 335° |
| 2026-04-25 00:27 | -12.02657 | -77.11456 | 86 ft | 11 kts | 333° |
| 2026-04-25 00:27 | -12.02560 | -77.11505 | 84 ft | 16 kts | 334° |
| 2026-04-25 00:27 | -12.02472 | -77.11549 | 83 ft | 13 kts | 334° |
| 2026-04-25 00:27 | -12.02394 | -77.11588 | 82 ft | 12 kts | 334° |
| 2026-04-25 00:28 | -12.02322 | -77.11624 | 79 ft | 11 kts | 334° |
| 2026-04-25 00:28 | -12.02250 | -77.11659 | 72 ft | 12 kts | 335° |
| 2026-04-25 00:28 | -12.02169 | -77.11698 | 69 ft | 13 kts | 334° |
| 2026-04-25 00:28 | -12.02085 | -77.11740 | 69 ft | 14 kts | 334° |
| 2026-04-25 00:29 | -12.01997 | -77.11784 | 63 ft | 14 kts | 336° |
| 2026-04-25 00:29 | -12.01909 | -77.11825 | 59 ft | 12 kts | 335° |
| 2026-04-25 00:29 | -12.01844 | -77.11842 | 63 ft | 8 kts | 23° |
| 2026-04-25 00:29 | -12.01816 | -77.11806 | 62 ft | 4 kts | 38° |
| 2026-04-25 00:30 | -12.01791 | -77.11799 | 64 ft | 1 kts | 6° |
| 2026-04-25 00:30 | -12.01764 | -77.11806 | 60 ft | 10 kts | 335° |
| 2026-04-25 00:30 | -12.01699 | -77.11846 | 61 ft | 11 kts | 331° |
| 2026-04-25 00:30 | -12.01636 | -77.11882 | 61 ft | 10 kts | 331° |
| 2026-04-25 00:31 | -12.01577 | -77.11914 | 57 ft | 9 kts | 333° |
| 2026-04-25 00:31 | -12.01522 | -77.11942 | 60 ft | 9 kts | 335° |
| 2026-04-25 00:31 | -12.01466 | -77.11967 | 62 ft | 9 kts | 336° |
| 2026-04-25 00:31 | -12.01376 | -77.12012 | 60 ft | 17 kts | 334° |
| 2026-04-25 00:32 | -12.01279 | -77.12070 | 56 ft | 15 kts | 313° |
| 2026-04-25 00:32 | -12.01212 | -77.12156 | 54 ft | 16 kts | 320° |
| 2026-04-25 00:32 | -12.01133 | -77.12199 | 52 ft | 10 kts | 334° |
| 2026-04-25 00:32 | -12.01067 | -77.12232 | 53 ft | 11 kts | 335° |
| 2026-04-25 00:33 | -12.01001 | -77.12263 | 52 ft | 10 kts | 335° |
| 2026-04-25 00:33 | -12.00939 | -77.12292 | 51 ft | 10 kts | 335° |
| 2026-04-25 00:33 | -12.00879 | -77.12314 | 51 ft | 9 kts | 355° |
| 2026-04-25 00:33 | -12.00847 | -77.12284 | 52 ft | 6 kts | 62° |
| 2026-04-25 00:34 | -12.00826 | -77.12243 | 52 ft | 14 kts | 63° |
| 2026-04-25 00:34 | -12.00784 | -77.12147 | 52 ft | 10 kts | 75° |
| 2026-04-25 00:34 | -12.00810 | -77.12113 | 52 ft | 0 kts | 151° |
| 2026-04-25 00:34 | -12.00838 | -77.12098 | 52 ft | 28 kts | 154° |
| 2026-04-25 00:35 | -12.01246 | -77.11897 | 57 ft | 98 kts | 154° |
| 2026-04-25 00:35 | -12.02033 | -77.11508 | 69 ft | 150 kts | 154° |
| 2026-04-25 00:35 | -12.03017 | -77.11016 | 538 ft | 161 kts | 154° |
| 2026-04-25 00:35 | -12.04033 | -77.10495 | 1163 ft | 166 kts | 154° |
| 2026-04-25 00:36 | -12.05126 | -77.09954 | 1580 ft | 186 kts | 154° |
| 2026-04-25 00:36 | -12.06345 | -77.09356 | 1916 ft | 208 kts | 152° |
| 2026-04-25 00:36 | -12.07466 | -77.08324 | 2258 ft | 232 kts | 121° |
| 2026-04-25 00:36 | -12.08277 | -77.06793 | 2722 ft | 255 kts | 118° |
| 2026-04-25 00:37 | -12.09156 | -77.05174 | 3499 ft | 264 kts | 119° |
| 2026-04-25 00:37 | -12.10072 | -77.03522 | 4404 ft | 270 kts | 119° |
| 2026-04-25 00:37 | -12.11008 | -77.01845 | 5262 ft | 275 kts | 119° |
| 2026-04-25 00:37 | -12.11990 | -77.00148 | 6103 ft | 280 kts | 121° |
| 2026-04-25 00:38 | -12.13021 | -76.98439 | 6894 ft | 285 kts | 121° |
| 2026-04-25 00:38 | -12.14079 | -76.96714 | 7696 ft | 288 kts | 121° |
| 2026-04-25 00:38 | -12.15139 | -76.94993 | 8497 ft | 292 kts | 121° |
| 2026-04-25 00:38 | -12.16226 | -76.93226 | 9282 ft | 296 kts | 121° |
| 2026-04-25 00:39 | -12.17320 | -76.91433 | 10054 ft | 299 kts | 121° |
| 2026-04-25 00:39 | -12.18449 | -76.89571 | 10393 ft | 319 kts | 121° |
| 2026-04-25 00:39 | -12.19650 | -76.87583 | 10725 ft | 336 kts | 121° |
| 2026-04-25 00:39 | -12.20890 | -76.85533 | 11344 ft | 341 kts | 121° |
| 2026-04-25 00:40 | -12.22143 | -76.83457 | 12056 ft | 344 kts | 121° |
| 2026-04-25 00:40 | -12.23405 | -76.81364 | 12777 ft | 347 kts | 122° |
| 2026-04-25 00:40 | -12.24678 | -76.79255 | 13483 ft | 350 kts | 122° |
| 2026-04-25 00:40 | -12.25961 | -76.77128 | 14123 ft | 353 kts | 122° |
| 2026-04-25 00:41 | -12.27254 | -76.74988 | 14713 ft | 356 kts | 121° |
| 2026-04-25 00:41 | -12.28560 | -76.72828 | 15328 ft | 358 kts | 121° |
| 2026-04-25 00:41 | -12.29873 | -76.70652 | 15928 ft | 361 kts | 121° |
| 2026-04-25 00:41 | -12.31195 | -76.68459 | 16509 ft | 364 kts | 121° |
| 2026-04-25 00:42 | -12.32506 | -76.66281 | 17103 ft | 366 kts | 121° |
| 2026-04-25 00:42 | -12.33844 | -76.64060 | 17683 ft | 369 kts | 120° |
| 2026-04-25 00:42 | -12.35195 | -76.61815 | 18270 ft | 371 kts | 120° |
| 2026-04-25 00:42 | -12.36556 | -76.59556 | 18741 ft | 374 kts | 120° |
| 2026-04-25 00:43 | -12.37927 | -76.57283 | 19233 ft | 377 kts | 120° |
| 2026-04-25 00:43 | -12.39309 | -76.54995 | 19730 ft | 379 kts | 120° |
| 2026-04-25 00:43 | -12.40698 | -76.52692 | 20213 ft | 381 kts | 120° |
| 2026-04-25 00:43 | -12.42095 | -76.50375 | 20685 ft | 384 kts | 120° |
| 2026-04-25 00:44 | -12.43481 | -76.48070 | 21145 ft | 387 kts | 120° |
| 2026-04-25 00:44 | -12.44896 | -76.45715 | 21619 ft | 390 kts | 120° |
| 2026-04-25 00:44 | -12.46321 | -76.43345 | 22086 ft | 392 kts | 120° |
| 2026-04-25 00:44 | -12.47754 | -76.40962 | 22548 ft | 394 kts | 120° |
| 2026-04-25 00:45 | -12.49196 | -76.38562 | 22979 ft | 397 kts | 120° |
| 2026-04-25 00:45 | -12.50648 | -76.36146 | 23425 ft | 400 kts | 120° |
| 2026-04-25 00:45 | -12.52108 | -76.33713 | 23806 ft | 402 kts | 120° |
| 2026-04-25 00:45 | -12.53577 | -76.31265 | 24150 ft | 405 kts | 120° |
| 2026-04-25 00:46 | -12.55055 | -76.28809 | 24522 ft | 407 kts | 120° |
| 2026-04-25 00:46 | -12.56544 | -76.26336 | 24888 ft | 409 kts | 120° |
| 2026-04-25 00:46 | -12.59519 | -76.21381 | 25594 ft | 413 kts | 120° |
| 2026-04-25 00:47 | -12.61028 | -76.18864 | 25940 ft | 416 kts | 120° |
| 2026-04-25 00:47 | -12.62544 | -76.16335 | 26292 ft | 418 kts | 120° |
| 2026-04-25 00:47 | -12.64071 | -76.13793 | 26636 ft | 420 kts | 120° |
| 2026-04-25 00:47 | -12.65604 | -76.11237 | 26959 ft | 422 kts | 120° |
| 2026-04-25 00:48 | -12.67144 | -76.08665 | 27295 ft | 425 kts | 120° |
| 2026-04-25 00:48 | -12.68691 | -76.06079 | 27631 ft | 427 kts | 120° |
| 2026-04-25 00:48 | -12.70249 | -76.03480 | 27974 ft | 429 kts | 120° |
| 2026-04-25 00:48 | -12.71815 | -76.00866 | 28288 ft | 432 kts | 120° |
| 2026-04-25 00:49 | -12.73354 | -75.98270 | 28616 ft | 434 kts | 117° |
| 2026-04-25 00:49 | -12.74613 | -75.95465 | 28941 ft | 434 kts | 108° |
| 2026-04-25 00:49 | -12.75422 | -75.92485 | 29226 ft | 435 kts | 102° |
| 2026-04-25 00:49 | -12.76123 | -75.89459 | 29523 ft | 438 kts | 102° |
| 2026-04-25 00:50 | -12.76833 | -75.86418 | 29825 ft | 440 kts | 102° |
| 2026-04-25 00:50 | -12.77550 | -75.83362 | 30138 ft | 442 kts | 102° |
| 2026-04-25 00:50 | -12.78273 | -75.80291 | 30410 ft | 445 kts | 102° |
| 2026-04-25 00:50 | -12.79002 | -75.77207 | 30660 ft | 446 kts | 102° |
| 2026-04-25 00:51 | -12.79726 | -75.74150 | 30903 ft | 448 kts | 102° |
| 2026-04-25 00:51 | -12.80462 | -75.71039 | 31149 ft | 450 kts | 102° |
| 2026-04-25 00:51 | -12.81195 | -75.67913 | 31409 ft | 452 kts | 102° |
| 2026-04-25 00:51 | -12.81927 | -75.64774 | 31654 ft | 454 kts | 102° |
| 2026-04-25 00:52 | -12.82656 | -75.61629 | 31979 ft | 453 kts | 102° |
| 2026-04-25 00:52 | -12.83384 | -75.58496 | 32319 ft | 453 kts | 102° |
| 2026-04-25 00:52 | -12.84110 | -75.55361 | 32666 ft | 452 kts | 102° |
| 2026-04-25 00:52 | -12.84838 | -75.52229 | 33014 ft | 452 kts | 102° |
| 2026-04-25 00:53 | -12.85566 | -75.49100 | 33347 ft | 451 kts | 102° |
| 2026-04-25 00:53 | -12.86285 | -75.46015 | 33677 ft | 451 kts | 102° |
| 2026-04-25 00:53 | -12.87015 | -75.42890 | 34012 ft | 451 kts | 102° |
| 2026-04-25 00:53 | -12.87745 | -75.39768 | 34345 ft | 450 kts | 102° |
| 2026-04-25 00:54 | -12.88473 | -75.36650 | 34651 ft | 449 kts | 102° |
| 2026-04-25 00:54 | -12.89198 | -75.33538 | 34968 ft | 448 kts | 102° |
| 2026-04-25 00:54 | -12.89920 | -75.30432 | 35245 ft | 448 kts | 102° |
| 2026-04-25 00:55 | -12.91350 | -75.24277 | 35347 ft | 438 kts | 102° |
| 2026-04-25 00:55 | -12.92743 | -75.18271 | 35351 ft | 436 kts | 102° |
| 2026-04-25 00:56 | -12.94141 | -75.12231 | 35358 ft | 435 kts | 102° |
| 2026-04-25 00:56 | -12.95543 | -75.06194 | 35362 ft | 435 kts | 102° |
| 2026-04-25 00:57 | -12.96937 | -75.00156 | 35368 ft | 435 kts | 102° |
| 2026-04-25 00:57 | -12.98325 | -74.94157 | 35377 ft | 435 kts | 102° |
| 2026-04-25 00:58 | -12.99708 | -74.88116 | 35379 ft | 435 kts | 102° |
| 2026-04-25 00:58 | -13.01096 | -74.82081 | 35379 ft | 435 kts | 102° |
| 2026-04-25 00:59 | -13.02494 | -74.76046 | 35378 ft | 435 kts | 102° |
| 2026-04-25 00:59 | -13.03873 | -74.70053 | 35369 ft | 434 kts | 102° |
| 2026-04-25 01:00 | -13.05248 | -74.64028 | 35360 ft | 433 kts | 102° |
| 2026-04-25 01:00 | -13.06632 | -74.58012 | 35358 ft | 434 kts | 102° |
| 2026-04-25 01:00 | -13.07326 | -74.55000 | 35228 ft | 434 kts | 102° |
| 2026-04-25 01:01 | -13.08018 | -74.51988 | 35355 ft | 434 kts | 102° |
| 2026-04-25 01:01 | -13.09393 | -74.45962 | 35355 ft | 434 kts | 102° |
| 2026-04-25 01:02 | -13.10763 | -74.39977 | 35353 ft | 434 kts | 102° |
| 2026-04-25 01:02 | -13.12138 | -74.33949 | 35357 ft | 434 kts | 102° |
| 2026-04-25 01:03 | -13.13513 | -74.27921 | 35347 ft | 434 kts | 102° |
| 2026-04-25 01:03 | -13.14887 | -74.21899 | 35349 ft | 434 kts | 102° |
| 2026-04-25 01:04 | -13.16259 | -74.15868 | 35342 ft | 434 kts | 102° |
| 2026-04-25 01:04 | -13.17613 | -74.09879 | 35338 ft | 434 kts | 102° |
| 2026-04-25 01:05 | -13.18981 | -74.03848 | 35332 ft | 434 kts | 102° |
| 2026-04-25 01:05 | -13.20353 | -73.97814 | 35334 ft | 434 kts | 102° |
| 2026-04-25 01:06 | -13.21722 | -73.91774 | 35335 ft | 435 kts | 102° |
| 2026-04-25 01:06 | -13.23086 | -73.85730 | 35334 ft | 434 kts | 102° |
| 2026-04-25 01:07 | -13.24437 | -73.79736 | 35322 ft | 434 kts | 102° |
| 2026-04-25 01:07 | -13.25806 | -73.73700 | 35315 ft | 434 kts | 102° |
| 2026-04-25 01:08 | -13.27171 | -73.67664 | 35302 ft | 434 kts | 102° |
| 2026-04-25 01:08 | -13.28526 | -73.61627 | 35294 ft | 434 kts | 102° |
| 2026-04-25 01:09 | -13.29872 | -73.55632 | 35293 ft | 434 kts | 102° |
| 2026-04-25 01:09 | -13.31227 | -73.49593 | 35289 ft | 434 kts | 102° |
| 2026-04-25 01:10 | -13.32580 | -73.43558 | 35293 ft | 434 kts | 102° |
| 2026-04-25 01:10 | -13.33943 | -73.37515 | 35291 ft | 434 kts | 102° |
| 2026-04-25 01:11 | -13.35299 | -73.31470 | 35284 ft | 434 kts | 102° |
| 2026-04-25 01:11 | -13.36651 | -73.25422 | 35283 ft | 434 kts | 102° |
| 2026-04-25 01:12 | -13.37995 | -73.19413 | 35278 ft | 434 kts | 102° |
| 2026-04-25 01:12 | -13.39346 | -73.13362 | 35280 ft | 435 kts | 102° |
| 2026-04-25 01:13 | -13.40692 | -73.07311 | 35280 ft | 435 kts | 102° |
| 2026-04-25 01:13 | -13.42038 | -73.01260 | 35277 ft | 434 kts | 102° |
| 2026-04-25 01:14 | -13.43372 | -72.95247 | 35272 ft | 435 kts | 102° |
| 2026-04-25 01:14 | -13.44693 | -72.89188 | 35266 ft | 434 kts | 99° |
| 2026-04-25 01:15 | -13.44870 | -72.83016 | 35257 ft | 433 kts | 86° |
| 2026-04-25 01:15 | -13.44489 | -72.76838 | 35250 ft | 434 kts | 86° |
| 2026-04-25 01:15 | -13.44597 | -72.73790 | 35109 ft | 433 kts | 100° |
| 2026-04-25 01:16 | -13.45496 | -72.70862 | 34880 ft | 430 kts | 116° |
| 2026-04-25 01:16 | -13.47145 | -72.68317 | 34647 ft | 429 kts | 132° |
| 2026-04-25 01:16 | -13.49414 | -72.66341 | 34421 ft | 429 kts | 148° |
| 2026-04-25 01:16 | -13.52128 | -72.65079 | 34183 ft | 430 kts | 163° |
| 2026-04-25 01:17 | -13.55081 | -72.64635 | 33920 ft | 431 kts | 180° |
| 2026-04-25 01:17 | -13.58044 | -72.65039 | 33657 ft | 431 kts | 195° |
| 2026-04-25 01:17 | -13.60787 | -72.66266 | 33402 ft | 431 kts | 212° |
| 2026-04-25 01:17 | -13.63093 | -72.68225 | 33149 ft | 431 kts | 228° |
| 2026-04-25 01:18 | -13.64776 | -72.70766 | 32906 ft | 431 kts | 245° |
| 2026-04-25 01:18 | -13.65710 | -72.73675 | 32660 ft | 430 kts | 261° |
| 2026-04-25 01:18 | -13.65835 | -72.76692 | 32424 ft | 429 kts | 277° |
| 2026-04-25 01:18 | -13.65154 | -72.79657 | 32184 ft | 426 kts | 293° |
| 2026-04-25 01:19 | -13.63720 | -72.82303 | 31946 ft | 424 kts | 309° |
| 2026-04-25 01:19 | -13.61655 | -72.84436 | 31715 ft | 420 kts | 325° |
| 2026-04-25 01:19 | -13.59131 | -72.85907 | 31479 ft | 416 kts | 341° |
| 2026-04-25 01:19 | -13.56344 | -72.86626 | 31253 ft | 412 kts | 356° |
| 2026-04-25 01:20 | -13.53490 | -72.86817 | 31024 ft | 411 kts | 0° |
| 2026-04-25 01:20 | -13.50670 | -72.86565 | 30795 ft | 405 kts | 16° |
| 2026-04-25 01:20 | -13.48073 | -72.85513 | 30559 ft | 400 kts | 32° |
| 2026-04-25 01:20 | -13.45901 | -72.83771 | 30331 ft | 396 kts | 49° |
| 2026-04-25 01:21 | -13.44321 | -72.81533 | 30080 ft | 392 kts | 64° |
| 2026-04-25 01:21 | -13.43392 | -72.78921 | 29822 ft | 389 kts | 79° |
| 2026-04-25 01:21 | -13.43198 | -72.76164 | 29550 ft | 388 kts | 95° |
| 2026-04-25 01:21 | -13.43749 | -72.73468 | 29277 ft | 386 kts | 110° |
| 2026-04-25 01:22 | -13.44996 | -72.71034 | 29018 ft | 386 kts | 126° |
| 2026-04-25 01:22 | -13.46801 | -72.68990 | 28752 ft | 387 kts | 134° |
| 2026-04-25 01:22 | -13.48604 | -72.66948 | 28499 ft | 385 kts | 127° |
| 2026-04-25 01:22 | -13.50157 | -72.64719 | 28243 ft | 383 kts | 120° |
| 2026-04-25 01:23 | -13.51391 | -72.62348 | 27986 ft | 380 kts | 113° |
| 2026-04-25 01:23 | -13.52332 | -72.59808 | 27512 ft | 381 kts | 106° |
| 2026-04-25 01:23 | -13.53032 | -72.57188 | 26952 ft | 380 kts | 104° |
| 2026-04-25 01:23 | -13.53723 | -72.54566 | 26404 ft | 380 kts | 104° |
| 2026-04-25 01:24 | -13.54418 | -72.51946 | 25863 ft | 380 kts | 104° |
| 2026-04-25 01:24 | -13.55114 | -72.49330 | 25333 ft | 379 kts | 104° |
| 2026-04-25 01:24 | -13.55814 | -72.46718 | 24813 ft | 379 kts | 104° |
| 2026-04-25 01:24 | -13.56511 | -72.44115 | 24305 ft | 378 kts | 104° |
| 2026-04-25 01:25 | -13.57207 | -72.41512 | 23802 ft | 378 kts | 104° |
| 2026-04-25 01:25 | -13.57890 | -72.38943 | 23220 ft | 378 kts | 105° |
| 2026-04-25 01:25 | -13.58578 | -72.36338 | 22630 ft | 378 kts | 104° |
| 2026-04-25 01:25 | -13.59264 | -72.33743 | 22228 ft | 373 kts | 104° |
| 2026-04-25 01:26 | -13.59940 | -72.31191 | 21905 ft | 367 kts | 104° |
| 2026-04-25 01:26 | -13.60602 | -72.28690 | 21673 ft | 359 kts | 104° |
| 2026-04-25 01:26 | -13.61250 | -72.26240 | 21453 ft | 352 kts | 104° |
| 2026-04-25 01:26 | -13.61886 | -72.23832 | 21234 ft | 346 kts | 104° |
| 2026-04-25 01:27 | -13.62508 | -72.21457 | 21018 ft | 343 kts | 104° |
| 2026-04-25 01:27 | -13.63117 | -72.19127 | 20806 ft | 341 kts | 104° |
| 2026-04-25 01:27 | -13.63732 | -72.16780 | 20594 ft | 339 kts | 104° |
| 2026-04-25 01:28 | -13.64956 | -72.12114 | 20170 ft | 337 kts | 104° |
| 2026-04-25 01:28 | -13.65564 | -72.09792 | 19959 ft | 336 kts | 104° |
| 2026-04-25 01:28 | -13.66171 | -72.07477 | 19748 ft | 335 kts | 104° |
| 2026-04-25 01:28 | -13.66773 | -72.05175 | 19562 ft | 332 kts | 104° |
| 2026-04-25 01:29 | -13.67366 | -72.02909 | 19407 ft | 324 kts | 104° |
| 2026-04-25 01:29 | -13.67963 | -72.00703 | 19262 ft | 316 kts | 107° |
| 2026-04-25 01:29 | -13.68697 | -71.98628 | 19106 ft | 310 kts | 112° |
| 2026-04-25 01:29 | -13.69617 | -71.96643 | 18701 ft | 306 kts | 117° |
| 2026-04-25 01:30 | -13.70682 | -71.94752 | 18549 ft | 305 kts | 120° |
| 2026-04-25 01:30 | -13.71765 | -71.92879 | 18388 ft | 304 kts | 120° |
| 2026-04-25 01:30 | -13.72843 | -71.91010 | 18202 ft | 303 kts | 120° |
| 2026-04-25 01:30 | -13.73916 | -71.89144 | 18032 ft | 303 kts | 120° |
| 2026-04-25 01:31 | -13.74983 | -71.87280 | 17845 ft | 302 kts | 120° |
| 2026-04-25 01:31 | -13.76035 | -71.85440 | 17675 ft | 296 kts | 120° |
| 2026-04-25 01:31 | -13.76965 | -71.83580 | 17506 ft | 289 kts | 109° |
| 2026-04-25 01:31 | -13.77467 | -71.81631 | 17328 ft | 283 kts | 97° |
| 2026-04-25 01:32 | -13.77570 | -71.79636 | 17152 ft | 276 kts | 86° |
| 2026-04-25 01:32 | -13.77307 | -71.77697 | 16946 ft | 273 kts | 76° |
| 2026-04-25 01:32 | -13.76690 | -71.75849 | 16616 ft | 274 kts | 64° |
| 2026-04-25 01:32 | -13.75726 | -71.74163 | 16311 ft | 274 kts | 53° |
| 2026-04-25 01:33 | -13.74468 | -71.72729 | 16176 ft | 267 kts | 42° |
| 2026-04-25 01:33 | -13.73014 | -71.71600 | 16194 ft | 259 kts | 32° |
| 2026-04-25 01:33 | -13.71411 | -71.70777 | 16176 ft | 258 kts | 21° |
| 2026-04-25 01:33 | -13.69695 | -71.70277 | 15868 ft | 263 kts | 10° |
| 2026-04-25 01:34 | -13.67866 | -71.70127 | 15465 ft | 265 kts | 359° |
| 2026-04-25 01:34 | -13.66039 | -71.70339 | 15072 ft | 265 kts | 348° |
| 2026-04-25 01:34 | -13.64282 | -71.70900 | 14686 ft | 264 kts | 338° |
| 2026-04-25 01:34 | -13.62657 | -71.71775 | 14413 ft | 264 kts | 327° |
| 2026-04-25 01:35 | -13.61248 | -71.72935 | 13985 ft | 264 kts | 316° |
| 2026-04-25 01:35 | -13.60056 | -71.74405 | 13532 ft | 263 kts | 304° |
| 2026-04-25 01:35 | -13.59207 | -71.76013 | 13373 ft | 251 kts | 294° |
| 2026-04-25 01:35 | -13.58577 | -71.77628 | 13179 ft | 244 kts | 293° |
| 2026-04-25 01:36 | -13.57942 | -71.79232 | 13060 ft | 238 kts | 293° |
| 2026-04-25 01:36 | -13.57331 | -71.80767 | 12923 ft | 227 kts | 293° |
| 2026-04-25 01:36 | -13.56750 | -71.82248 | 12768 ft | 220 kts | 291° |
| 2026-04-25 01:36 | -13.56244 | -71.83700 | 12549 ft | 212 kts | 289° |
| 2026-04-25 01:37 | -13.55776 | -71.85092 | 12242 ft | 201 kts | 292° |
| 2026-04-25 01:37 | -13.55198 | -71.86331 | 11915 ft | 184 kts | 301° |
| 2026-04-25 01:37 | -13.54559 | -71.87427 | 11644 ft | 176 kts | 300° |
| 2026-04-25 01:37 | -13.54085 | -71.88571 | 11368 ft | 173 kts | 283° |
| 2026-04-25 01:38 | -13.53988 | -71.89693 | 11107 ft | 172 kts | 272° |
| 2026-04-25 01:38 | -13.53887 | -71.90906 | 10910 ft | 169 kts | 279° |
| 2026-04-25 01:38 | -13.53757 | -71.92109 | 10756 ft | 169 kts | 278° |
| 2026-04-25 01:38 | -13.53646 | -71.93151 | 10757 ft | 135 kts | 276° |
| 2026-04-25 01:39 | -13.53580 | -71.93803 | 10800 ft | 52 kts | 276° |
| 2026-04-25 01:39 | -13.53583 | -71.93970 | 10806 ft | 14 kts | 250° |
| 2026-04-25 01:39 | -13.53601 | -71.94013 | 10810 ft | 0 kts | 246° |
| 2026-04-25 01:39 | -13.53607 | -71.94026 | 10809 ft | 5 kts | 246° |
| 2026-04-25 01:40 | -13.53631 | -71.94083 | 10811 ft | 12 kts | 246° |
| 2026-04-25 01:40 | -13.53668 | -71.94168 | 10815 ft | 15 kts | 246° |
| 2026-04-25 01:40 | -13.53675 | -71.94259 | 10817 ft | 7 kts | 257° |
| 2026-04-25 01:40 | -13.53685 | -71.94266 | 10817 ft | 1 kts | 206° |
| 2026-04-25 01:41 | -13.53702 | -71.94272 | 10817 ft | 0 kts | 196° |
| 2026-04-25 01:41 | -13.53710 | -71.94277 | 10817 ft | 4 kts | 220° |
| 2026-04-25 01:41 | -13.53716 | -71.94288 | 10816 ft | 3 kts | 241° |
| 2026-04-25 01:41 | -13.53723 | -71.94318 | 10817 ft | 3 kts | 257° |
| 2026-04-25 01:42 | -13.53724 | -71.94322 | 10817 ft | 0 kts | 257° |